Terminal Aerodrome Forecast
Issued by NWS

Home | Current Version | Previous Version | Graphics & Text | Print | Product List | Glossary On
Versions: 1 2 3 4 5 6 7 8 9 10 11 12 13 14 15 16 17 18 19 20 21 22 23 24
000
FTUS43 KABR 302000 AAA
TAFMBG
TAF AMD
KMBG 302050Z 3021/3118 16010KT P6SM SKC
     FM310600 13017KT P6SM OVC100
     FM311100 29012KT 4SM BR OVC007=

USA.gov is the U.S. government's official web portal to all federal, state and local government web resources and services.